Flight Track Log - Related Links

Times and Time Zones

All times are in EDT time to prevent confusion due to time zone crossing. See the N161PQ flight status page for this flight to view local times or setup timezone preferences in your user account.

Time Position Orientation Groundspeed Altitude Reporting Facility
EDT Latitude Longitude Course Direction KTS MPH feet Rate Location/Type
Tue 05:37:53 PM 41.1000 -73.7500 255° West 177 204 2,900  Level New York TRACON
Tue 05:38:59 PM 41.0833 -73.8333 242° Southwest 239 275 5,800 2,750 Climbing New York TRACON
Tue 05:39:53 PM 41.0500 -73.9167 242° Southwest 275 316 8,400 2,895 Climbing New York TRACON
Tue 05:40:53 PM 41.0167 -74.0000 237° Southwest 278 320 11,300 2,150 Climbing New York TRACON
Tue 05:41:53 PM 40.9667 -74.1000 244° Southwest 333 383 12,700 1,524 Climbing New York TRACON
Tue 05:42:59 PM 40.9167 -74.2333 239° Southwest 374 430 14,500 1,344 Climbing New York TRACON
Tue 05:45:05 PM 40.7989 -74.4881 240° Southwest 391 450 17,000 834 Climbing New York Center
Tue 05:46:06 PM 40.7494 -74.6006 240° Southwest 391 450 17,100 1,017 Climbing New York Center
Tue 05:47:03 PM 40.6908 -74.7369 238° Southwest 391 450 19,000 1,780 Climbing New York Center
Tue 05:48:04 PM 40.6325 -74.8619 241° Southwest 391 450 20,600 1,525 Climbing New York Center
Tue 05:49:05 PM 40.5778 -74.9897 234° Southwest 391 450 22,100 1,488 Climbing New York Center
Tue 05:50:05 PM 40.5067 -75.1164 229° Southwest 412 474 23,600 1,627 Climbing New York Center
Tue 05:51:03 PM 40.4269 -75.2369 230° Southwest 442 509 25,300 1,576 Climbing New York Center
Tue 05:52:03 PM 40.3494 -75.3600 231° Southwest 442 509 26,700 1,339 Climbing New York Center
Tue 05:53:04 PM 40.2806 -75.4697 232° Southwest 447 514 28,000 1,289 Climbing New York Center
Tue 05:54:04 PM 40.2133 -75.5819 237° Southwest 442 509 29,300 1,388 Climbing New York Center
Tue 05:55:05 PM 40.1383 -75.7342 236° Southwest 427 491 30,800 1,261 Climbing New York Center
Tue 05:56:03 PM 40.0769 -75.8547 232° Southwest 435 501 31,800 1,119 Climbing New York Center
Tue 05:57:03 PM 39.9917 -75.9947 231° Southwest 455 524 33,000 960 Climbing New York Center
Tue 05:58:58 PM 39.8558 -76.2106 231° Southwest 437 503 34,600 886 Climbing Washington Center
Tue 05:59:59 PM 39.7800 -76.3314 231° Southwest 437 503 35,600 712 Climbing Washington Center
Tue 06:00:56 PM 39.7044 -76.4519 229° Southwest 437 503 36,000 203 Climbing Washington Center
Tue 06:01:57 PM 39.6158 -76.5856 229° Southwest 437 503 36,000  Level Washington Center
Tue 06:02:58 PM 39.5378 -76.7028 229° Southwest 437 503 36,000  Level Washington Center
Tue 06:03:58 PM 39.4594 -76.8200 230° Southwest 437 503 36,000  Level Washington Center
Tue 06:04:56 PM 39.3831 -76.9367 230° Southwest 437 503 36,000  Level Washington Center
Tue 06:05:56 PM 39.3047 -77.0586 229° Southwest 432 497 36,000  Level Washington Center
Tue 06:06:59 PM 39.2261 -77.1750 229° Southwest 437 503 36,000  Level Washington Center
Tue 06:07:56 PM 39.1472 -77.2911 229° Southwest 437 503 36,000  Level Washington Center
Tue 06:08:56 PM 39.0686 -77.4069 229° Southwest 437 503 36,000  Level Washington Center
Tue 06:09:57 PM 38.9917 -77.5200 230° Southwest 437 503 36,000  Level Washington Center
Tue 06:10:57 PM 38.9106 -77.6458 228° Southwest 442 509 36,000  Level Washington Center
Tue 06:11:58 PM 38.8378 -77.7503 229° Southwest 442 509 36,000  Level Washington Center
Tue 06:12:56 PM 38.7519 -77.8756 228° Southwest 457 526 36,000  Level Washington Center
Tue 06:13:56 PM 38.6683 -77.9953 229° Southwest 463 533 36,000  Level Washington Center
Tue 06:14:57 PM 38.5867 -78.1175 229° Southwest 463 533 36,000  Level Washington Center
Tue 06:15:56 PM 38.5050 -78.2369 229° Southwest 463 533 36,000  Level Washington Center
Tue 06:16:57 PM 38.4208 -78.3583 229° Southwest 463 533 36,000  Level Washington Center
Tue 06:17:57 PM 38.3389 -78.4772 231° Southwest 458 527 36,000  Level Washington Center
Tue 06:18:58 PM 38.2564 -78.6061 229° Southwest 446 513 36,000  Level Washington Center
Tue 06:19:58 PM 38.1739 -78.7269 228° Southwest 446 513 36,000  Level Washington Center
Tue 06:20:58 PM 38.0894 -78.8447 228° Southwest 446 513 36,000  Level Washington Center
Tue 06:21:56 PM 38.0158 -78.9497 229° Southwest 446 513 36,000  Level Washington Center
Tue 06:22:56 PM 37.9375 -79.0619 228° Southwest 446 513 36,000  Level Washington Center
Tue 06:23:57 PM 37.8592 -79.1717 228° Southwest 446 513 36,000  Level Washington Center
Tue 06:24:57 PM 37.7808 -79.2808 228° Southwest 434 499 36,000  Level Washington Center
Tue 06:25:56 PM 37.7000 -79.3925 226° Southwest 433 498 36,000  Level Washington Center
Tue 06:26:56 PM 37.6131 -79.5061 228° Southwest 427 491 36,000  Level Washington Center
Tue 06:27:57 PM 37.5431 -79.6044 226° Southwest 427 491 36,000  Level Washington Center
Tue 06:28:57 PM 37.4533 -79.7228 229° Southwest 427 491 36,000  Level Washington Center
Tue 06:29:58 PM 37.3744 -79.8361 227° Southwest 437 503 36,000  Level Washington Center
Tue 06:30:56 PM 37.2933 -79.9464 227° Southwest 437 503 36,000  Level Washington Center
Tue 06:33:16 PM 37.1014 -80.2003 228° Southwest 433 498 36,000  Level Atlanta Center
Tue 06:34:17 PM 37.0175 -80.3164 227° Southwest 433 498 36,000  Level Atlanta Center
Tue 06:35:16 PM 36.9372 -80.4239 225° Southwest 433 498 36,000  Level Atlanta Center
Tue 06:36:16 PM 36.8608 -80.5208 226° Southwest 433 498 36,000  Level Atlanta Center
Tue 06:37:16 PM 36.7764 -80.6308 228° Southwest 433 498 36,000  Level Atlanta Center
Tue 06:38:16 PM 36.6900 -80.7511 225° Southwest 427 491 36,000  Level Atlanta Center
Tue 06:39:16 PM 36.6053 -80.8578 227° Southwest 434 499 36,000  Level Atlanta Center
Tue 06:40:16 PM 36.5225 -80.9697 227° Southwest 434 499 36,000  Level Atlanta Center
Tue 06:41:16 PM 36.4397 -81.0814 235° Southwest 434 499 36,000  Level Atlanta Center
Tue 06:42:16 PM 36.3697 -81.2075 238° Southwest 440 506 36,000  Level Atlanta Center
Tue 06:43:16 PM 36.3039 -81.3361 237° Southwest 452 520 36,000  Level Atlanta Center
Tue 06:44:16 PM 36.2356 -81.4647 232° Southwest 446 513 36,000  Level Atlanta Center
Tue 06:45:16 PM 36.1589 -81.5881 230° Southwest 451 519 36,000  Level Atlanta Center
Tue 06:46:16 PM 36.0797 -81.7033 238° Southwest 451 519 36,000  Level Atlanta Center
Tue 06:47:16 PM 36.0133 -81.8336 227° Southwest 451 519 36,000  Level Atlanta Center
Tue 06:48:16 PM 35.9278 -81.9461 223° Southwest 456 525 36,000 -50 Level Atlanta Center
Tue 06:49:16 PM 35.8481 -82.0381 221° Southwest 450 518 35,900 -500 Descending Atlanta Center
Tue 06:50:16 PM 35.7517 -82.1428 222° Southwest 456 525 35,000 -450 Descending Atlanta Center
Tue 06:51:16 PM 35.6572 -82.2469 223° Southwest 461 531 35,000  Level Atlanta Center
Tue 06:52:16 PM 35.5669 -82.3511 220° Southwest 456 525 35,000 -350 Level Atlanta Center
Tue 06:53:16 PM 35.4722 -82.4500 220° Southwest 456 525 34,300 -950 Descending Atlanta Center
Tue 06:54:16 PM 35.3775 -82.5461 219° Southwest 450 518 33,100 -1,250 Descending Atlanta Center
Tue 06:55:16 PM 35.2722 -82.6497 220° Southwest 445 512 31,800 -1,050 Descending Atlanta Center
Tue 06:56:16 PM 35.1733 -82.7506 220° Southwest 450 518 31,000 -400 Descending Atlanta Center
Tue 06:57:16 PM 35.0742 -82.8511 220° Southwest 461 531 31,000 -50 Level Atlanta Center
Tue 06:58:16 PM 34.9747 -82.9514 220° Southwest 476 548 30,900 -550 Descending Atlanta Center
Tue 06:59:16 PM 34.8714 -83.0564 220° Southwest 478 550 29,900 -1,050 Descending Atlanta Center
Tue 07:00:16 PM 34.7719 -83.1589 218° Southwest 478 550 28,800 -1,200 Descending Atlanta Center
Tue 07:01:16 PM 34.6850 -83.2406 221° Southwest 462 532 27,500 -2,100 Descending Atlanta Center
Tue 07:02:16 PM 34.5894 -83.3422 219° Southwest 431 496 24,600 -2,650 Descending Atlanta Center
Tue 07:03:16 PM 34.4981 -83.4314 221° Southwest 421 484 22,200 -2,250 Descending Atlanta Center
Tue 07:04:16 PM 34.4233 -83.5100 219° Southwest 416 479 20,100 -2,200 Descending Atlanta Center
Tue 07:05:16 PM 34.3422 -83.5908 219° Southwest 401 461 17,800 -2,150 Descending Atlanta Center
Tue 07:06:16 PM 34.2611 -83.6694 221° Southwest 378 435 15,800 -2,000 Descending Atlanta Center
Tue 07:07:16 PM 34.1883 -83.7450 218° Southwest 365 420 13,800 -1,900 Descending Atlanta Center
Tue 07:08:16 PM 34.1133 -83.8156 222° Southwest 355 409 12,000 -1,355 Descending Atlanta Center
Tue 07:09:20 PM 34.0500 -83.8833 220° Southwest 278 320 11,000 -1,017 Descending Atlanta TRACON
Tue 07:10:14 PM 33.9833 -83.9500 192° South 271 312 10,000 -900 Descending Atlanta TRACON
Tue 07:11:20 PM 33.9167 -83.9667 180° South 273 314 9,200 -476 Descending Atlanta TRACON
Tue 07:12:20 PM 33.8333 -83.9667 180° South 279 321 9,000 -368 Descending Atlanta TRACON
Tue 07:13:14 PM 33.7667 -83.9667 184° South 272 313 8,500 -1,034 Descending Atlanta TRACON
Tue 07:14:16 PM 33.6900 -83.9739 225° Southwest 277 319 7,000 -738 Descending Atlanta Center
Tue 07:15:16 PM 33.6397 -84.0339 264° West 255 293 7,000 -500 Level Atlanta Center
Tue 07:16:16 PM 33.6314 -84.1236 272° West 241 277 6,000 -559 Descending Atlanta Center
Tue 07:17:14 PM 33.6333 -84.2000 270° West 229 264 5,900 -966 Descending Atlanta TRACON
Tue 07:18:14 PM 33.6333 -84.2667 270° West 222 255 4,100 -1,800 Descending Atlanta TRACON
Tue 07:19:14 PM 33.6333 -84.3333 270° West 204 235 2,300 -1,350 Descending Atlanta TRACON
Tue 07:20:14 PM 33.6333 -84.4000 270° West 151 174 1,400 -900 Descending Atlanta TRACON

Login

Don't have an account? Register now (free) for customized features, flight alerts, and more!